sensor_id;sensor_type;location;lat;lon;timestamp;temperature;humidity
52024;DHT22;38038;45.922;13.604;2022-11-23T07:38:54;7.60;99.90
52024;DHT22;38038;45.922;13.604;2022-11-23T07:41:19;7.80;99.90
52024;DHT22;38038;45.922;13.604;2022-11-23T07:43:45;7.90;99.90
52024;DHT22;38038;45.922;13.604;2022-11-23T07:46:11;8.00;99.90
52024;DHT22;38038;45.922;13.604;2022-11-23T07:48:36;8.10;99.90
52024;DHT22;38038;45.922;13.604;2022-11-23T07:51:02;8.20;99.90
52024;DHT22;38038;45.922;13.604;2022-11-23T07:53:28;8.20;99.90
52024;DHT22;38038;45.922;13.604;2022-11-23T07:55:55;8.50;99.90
52024;DHT22;38038;45.922;13.604;2022-11-23T07:58:22;8.60;99.90
52024;DHT22;38038;45.922;13.604;2022-11-23T08:00:48;8.70;99.90
52024;DHT22;38038;45.922;13.604;2022-11-23T08:03:13;8.70;99.90
52024;DHT22;38038;45.922;13.604;2022-11-23T08:05:39;8.90;99.90
52024;DHT22;38038;45.922;13.604;2022-11-23T08:08:05;8.80;99.90
52024;DHT22;38038;45.922;13.604;2022-11-23T08:10:31;8.70;99.90
52024;DHT22;38038;45.922;13.604;2022-11-23T08:13:03;8.70;99.90
52024;DHT22;38038;45.922;13.604;2022-11-23T08:15:29;8.70;99.90
52024;DHT22;38038;45.922;13.604;2022-11-23T08:17:59;8.60;99.90
52024;DHT22;38038;45.922;13.604;2022-11-23T08:20:26;8.60;99.90
52024;DHT22;38038;45.922;13.604;2022-11-23T08:22:52;8.60;99.90
52024;DHT22;38038;45.922;13.604;2022-11-23T08:25:21;8.80;99.90
52024;DHT22;38038;45.922;13.604;2022-11-23T08:27:47;8.90;99.90
52024;DHT22;38038;45.922;13.604;2022-11-23T08:30:13;8.90;99.90
52024;DHT22;38038;45.922;13.604;2022-11-23T08:32:39;9.00;99.90
52024;DHT22;38038;45.922;13.604;2022-11-23T08:35:06;9.10;99.90
52024;DHT22;38038;45.922;13.604;2022-11-23T08:37:31;9.20;99.90
52024;DHT22;38038;45.922;13.604;2022-11-23T08:39:57;9.30;99.90
52024;DHT22;38038;45.922;13.604;2022-11-23T08:42:23;9.30;99.90
52024;DHT22;38038;45.922;13.604;2022-11-23T08:44:48;9.30;99.90
52024;DHT22;38038;45.922;13.604;2022-11-23T08:47:14;9.50;99.90
52024;DHT22;38038;45.922;13.604;2022-11-23T08:49:40;9.60;99.90
52024;DHT22;38038;45.922;13.604;2022-11-23T08:52:05;9.50;99.90
52024;DHT22;38038;45.922;13.604;2022-11-23T08:54:31;9.50;99.90
52024;DHT22;38038;45.922;13.604;2022-11-23T08:56:57;9.60;99.90
52024;DHT22;38038;45.922;13.604;2022-11-23T08:59:22;9.60;99.90
52024;DHT22;38038;45.922;13.604;2022-11-23T09:01:48;9.50;99.90
52024;DHT22;38038;45.922;13.604;2022-11-23T09:04:14;9.60;99.90
52024;DHT22;38038;45.922;13.604;2022-11-23T09:06:39;9.70;99.90
52024;DHT22;38038;45.922;13.604;2022-11-23T09:09:05;9.80;99.90
52024;DHT22;38038;45.922;13.604;2022-11-23T09:11:31;9.70;99.90
52024;DHT22;38038;45.922;13.604;2022-11-23T09:13:57;9.80;99.90
52024;DHT22;38038;45.922;13.604;2022-11-23T09:16:23;9.90;99.90
52024;DHT22;38038;45.922;13.604;2022-11-23T09:18:48;9.80;99.90
52024;DHT22;38038;45.922;13.604;2022-11-23T09:21:14;9.80;99.90
52024;DHT22;38038;45.922;13.604;2022-11-23T09:23:40;9.80;99.90
52024;DHT22;38038;45.922;13.604;2022-11-23T09:26:06;9.70;99.90
52024;DHT22;38038;45.922;13.604;2022-11-23T09:28:32;9.50;99.90
52024;DHT22;38038;45.922;13.604;2022-11-23T09:31:01;9.60;99.90
52024;DHT22;38038;45.922;13.604;2022-11-23T09:33:27;9.60;99.90
52024;DHT22;38038;45.922;13.604;2022-11-23T09:38:22;9.60;99.90
52024;DHT22;38038;45.922;13.604;2022-11-23T09:40:59;9.60;99.90
52024;DHT22;38038;45.922;13.604;2022-11-23T09:49:20;9.60;99.90
52024;DHT22;38038;45.922;13.604;2022-11-23T09:51:47;9.60;99.90
52024;DHT22;38038;45.922;13.604;2022-11-23T09:54:31;9.80;99.90
52024;DHT22;38038;45.922;13.604;2022-11-23T09:56:58;9.80;99.90
52024;DHT22;38038;45.922;13.604;2022-11-23T10:00:07;9.80;99.90
52024;DHT22;38038;45.922;13.604;2022-11-23T10:02:40;9.80;99.90
52024;DHT22;38038;45.922;13.604;2022-11-23T10:05:06;9.90;99.90
52024;DHT22;38038;45.922;13.604;2022-11-23T10:08:03;10.00;99.90
52024;DHT22;38038;45.922;13.604;2022-11-23T10:10:43;9.90;99.90
52024;DHT22;38038;45.922;13.604;2022-11-23T10:13:25;9.80;99.90
52024;DHT22;38038;45.922;13.604;2022-11-23T10:24:16;10.00;99.90
52024;DHT22;38038;45.922;13.604;2022-11-23T10:26:46;10.10;99.90
52024;DHT22;38038;45.922;13.604;2022-11-23T10:29:27;10.20;99.90
52024;DHT22;38038;45.922;13.604;2022-11-23T10:31:54;10.20;99.90
52024;DHT22;38038;45.922;13.604;2022-11-23T10:37:12;10.20;99.90
52024;DHT22;38038;45.922;13.604;2022-11-23T10:39:39;10.20;99.90
52024;DHT22;38038;45.922;13.604;2022-11-23T10:43:16;10.00;99.90
52024;DHT22;38038;45.922;13.604;2022-11-23T10:45:34;10.10;99.90
52024;DHT22;38038;45.922;13.604;2022-11-23T10:48:05;10.10;99.90
52024;DHT22;38038;45.922;13.604;2022-11-23T10:50:41;10.00;99.90
52024;DHT22;38038;45.922;13.604;2022-11-23T10:53:24;9.90;99.90
52024;DHT22;38038;45.922;13.604;2022-11-23T10:56:12;9.90;99.90
52024;DHT22;38038;45.922;13.604;2022-11-23T10:58:45;9.90;99.90
52024;DHT22;38038;45.922;13.604;2022-11-23T11:01:34;10.00;99.90
52024;DHT22;38038;45.922;13.604;2022-11-23T11:04:21;10.00;99.90
52024;DHT22;38038;45.922;13.604;2022-11-23T11:07:09;10.10;99.90
52024;DHT22;38038;45.922;13.604;2022-11-23T11:09:41;10.20;99.90
52024;DHT22;38038;45.922;13.604;2022-11-23T11:12:16;10.00;99.90
52024;DHT22;38038;45.922;13.604;2022-11-23T11:15:13;9.90;99.90
52024;DHT22;38038;45.922;13.604;2022-11-23T11:17:39;9.80;99.90
52024;DHT22;38038;45.922;13.604;2022-11-23T11:20:32;9.80;99.90
52024;DHT22;38038;45.922;13.604;2022-11-23T11:23:00;9.80;99.90
52024;DHT22;38038;45.922;13.604;2022-11-23T11:25:39;9.80;99.90
52024;DHT22;38038;45.922;13.604;2022-11-23T11:34:57;10.00;99.90
52024;DHT22;38038;45.922;13.604;2022-11-23T11:37:46;9.90;99.90
52024;DHT22;38038;45.922;13.604;2022-11-23T11:40:28;9.90;99.90
52024;DHT22;38038;45.922;13.604;2022-11-23T11:43:28;10.10;99.90
52024;DHT22;38038;45.922;13.604;2022-11-23T11:45:59;10.20;99.90
52024;DHT22;38038;45.922;13.604;2022-11-23T11:51:07;10.20;99.90
52024;DHT22;38038;45.922;13.604;2022-11-23T11:53:58;10.10;99.90
52024;DHT22;38038;45.922;13.604;2022-11-23T11:56:42;10.10;99.90
52024;DHT22;38038;45.922;13.604;2022-11-23T11:59:28;10.20;99.90
52024;DHT22;38038;45.922;13.604;2022-11-23T12:01:57;10.30;99.90
52024;DHT22;38038;45.922;13.604;2022-11-23T12:04:31;10.40;99.90
52024;DHT22;38038;45.922;13.604;2022-11-23T12:07:07;10.40;99.90
52024;DHT22;38038;45.922;13.604;2022-11-23T12:09:39;10.50;99.90
52024;DHT22;38038;45.922;13.604;2022-11-23T12:12:18;10.40;99.90
52024;DHT22;38038;45.922;13.604;2022-11-23T12:14:45;10.50;99.90
52024;DHT22;38038;45.922;13.604;2022-11-23T12:23:29;10.60;99.90
52024;DHT22;38038;45.922;13.604;2022-11-23T12:31:36;10.40;99.90
52024;DHT22;38038;45.922;13.604;2022-11-23T12:45:52;10.40;99.90
52024;DHT22;38038;45.922;13.604;2022-11-23T12:51:40;10.30;99.90
52024;DHT22;38038;45.922;13.604;2022-11-23T12:59:10;10.50;99.90
52024;DHT22;38038;45.922;13.604;2022-11-23T13:01:41;10.40;99.90
52024;DHT22;38038;45.922;13.604;2022-11-23T13:04:30;10.40;99.90
52024;DHT22;38038;45.922;13.604;2022-11-23T13:21:43;10.40;99.90
52024;DHT22;38038;45.922;13.604;2022-11-23T13:24:30;10.30;99.90
52024;DHT22;38038;45.922;13.604;2022-11-23T13:57:34;10.50;99.90
52024;DHT22;38038;45.922;13.604;2022-11-23T14:11:33;10.80;99.90
52024;DHT22;38038;45.922;13.604;2022-11-23T14:14:02;10.70;99.90
52024;DHT22;38038;45.922;13.604;2022-11-23T14:25:31;10.70;99.90
52024;DHT22;38038;45.922;13.604;2022-11-23T14:36:34;10.60;99.90
52024;DHT22;38038;45.922;13.604;2022-11-23T14:41:31;10.50;99.90
52024;DHT22;38038;45.922;13.604;2022-11-23T14:44:01;10.40;99.90
52024;DHT22;38038;45.922;13.604;2022-11-23T14:46:27;10.30;99.90
52024;DHT22;38038;45.922;13.604;2022-11-23T14:49:03;10.30;99.90
52024;DHT22;38038;45.922;13.604;2022-11-23T14:51:30;10.10;99.90
52024;DHT22;38038;45.922;13.604;2022-11-23T14:54:00;10.00;99.90
52024;DHT22;38038;45.922;13.604;2022-11-23T14:56:35;9.90;99.90
52024;DHT22;38038;45.922;13.604;2022-11-23T14:59:05;9.90;99.90
52024;DHT22;38038;45.922;13.604;2022-11-23T15:01:31;9.80;99.90
52024;DHT22;38038;45.922;13.604;2022-11-23T15:03:59;9.80;99.90
52024;DHT22;38038;45.922;13.604;2022-11-23T15:06:29;9.60;99.90
52024;DHT22;38038;45.922;13.604;2022-11-23T15:09:25;9.60;99.90
52024;DHT22;38038;45.922;13.604;2022-11-23T15:14:43;9.40;99.90
52024;DHT22;38038;45.922;13.604;2022-11-23T15:17:13;9.30;99.90
52024;DHT22;38038;45.922;13.604;2022-11-23T15:19:40;9.10;99.90
52024;DHT22;38038;45.922;13.604;2022-11-23T15:22:15;9.00;99.90
52024;DHT22;38038;45.922;13.604;2022-11-23T15:24:43;8.90;99.90
52024;DHT22;38038;45.922;13.604;2022-11-23T15:27:14;8.80;99.90
52024;DHT22;38038;45.922;13.604;2022-11-23T15:29:58;8.90;99.90
52024;DHT22;38038;45.922;13.604;2022-11-23T15:32:31;8.80;99.90
52024;DHT22;38038;45.922;13.604;2022-11-23T15:35:03;8.70;99.90
52024;DHT22;38038;45.922;13.604;2022-11-23T15:37:32;8.70;99.90
52024;DHT22;38038;45.922;13.604;2022-11-23T15:39:59;8.60;99.90
52024;DHT22;38038;45.922;13.604;2022-11-23T15:42:25;8.50;99.90
52024;DHT22;38038;45.922;13.604;2022-11-23T15:44:51;8.30;99.90
52024;DHT22;38038;45.922;13.604;2022-11-23T15:47:28;8.30;99.90
52024;DHT22;38038;45.922;13.604;2022-11-23T15:50:00;8.20;99.90
52024;DHT22;38038;45.922;13.604;2022-11-23T15:52:28;8.20;99.90
52024;DHT22;38038;45.922;13.604;2022-11-23T15:54:55;8.30;99.90
52024;DHT22;38038;45.922;13.604;2022-11-23T15:57:24;8.40;99.90
52024;DHT22;38038;45.922;13.604;2022-11-23T15:59:58;8.30;99.90
52024;DHT22;38038;45.922;13.604;2022-11-23T16:02:27;8.30;99.90
52024;DHT22;38038;45.922;13.604;2022-11-23T16:05:12;8.30;99.90
52024;DHT22;38038;45.922;13.604;2022-11-23T16:07:54;8.40;99.90
52024;DHT22;38038;45.922;13.604;2022-11-23T16:10:27;8.30;99.90
52024;DHT22;38038;45.922;13.604;2022-11-23T16:12:58;8.20;99.90
52024;DHT22;38038;45.922;13.604;2022-11-23T16:15:28;8.10;99.90
52024;DHT22;38038;45.922;13.604;2022-11-23T16:17:59;7.90;99.90
52024;DHT22;38038;45.922;13.604;2022-11-23T16:20:26;8.00;99.90
52024;DHT22;38038;45.922;13.604;2022-11-23T16:22:55;8.10;99.90
52024;DHT22;38038;45.922;13.604;2022-11-23T16:25:31;8.10;99.90
52024;DHT22;38038;45.922;13.604;2022-11-23T16:28:25;8.00;99.90
52024;DHT22;38038;45.922;13.604;2022-11-23T16:30:48;8.10;99.90
52024;DHT22;38038;45.922;13.604;2022-11-23T16:33:17;8.10;99.90
52024;DHT22;38038;45.922;13.604;2022-11-23T16:35:43;8.10;99.90
52024;DHT22;38038;45.922;13.604;2022-11-23T16:38:09;8.00;99.90
52024;DHT22;38038;45.922;13.604;2022-11-23T16:40:37;8.00;99.90
52024;DHT22;38038;45.922;13.604;2022-11-23T16:43:03;7.90;99.90
52024;DHT22;38038;45.922;13.604;2022-11-23T16:45:30;7.80;99.90
52024;DHT22;38038;45.922;13.604;2022-11-23T16:48:01;7.70;99.90
52024;DHT22;38038;45.922;13.604;2022-11-23T16:50:36;7.70;99.90
52024;DHT22;38038;45.922;13.604;2022-11-23T16:53:15;7.70;99.90
52024;DHT22;38038;45.922;13.604;2022-11-23T16:55:41;7.70;99.90
52024;DHT22;38038;45.922;13.604;2022-11-23T16:58:10;7.60;99.90
52024;DHT22;38038;45.922;13.604;2022-11-23T17:00:38;7.50;99.90
52024;DHT22;38038;45.922;13.604;2022-11-23T17:03:04;7.50;99.90
52024;DHT22;38038;45.922;13.604;2022-11-23T17:05:30;7.40;99.90
52024;DHT22;38038;45.922;13.604;2022-11-23T17:07:55;7.30;99.90
52024;DHT22;38038;45.922;13.604;2022-11-23T17:10:21;7.30;99.90
52024;DHT22;38038;45.922;13.604;2022-11-23T17:12:52;7.30;99.90
52024;DHT22;38038;45.922;13.604;2022-11-23T17:15:22;7.20;99.90
52024;DHT22;38038;45.922;13.604;2022-11-23T17:17:49;7.20;99.90
52024;DHT22;38038;45.922;13.604;2022-11-23T17:20:15;7.10;99.90
52024;DHT22;38038;45.922;13.604;2022-11-23T17:22:41;7.00;99.90
52024;DHT22;38038;45.922;13.604;2022-11-23T17:25:09;6.80;99.90
52024;DHT22;38038;45.922;13.604;2022-11-23T17:27:38;6.70;99.90
52024;DHT22;38038;45.922;13.604;2022-11-23T17:30:15;6.70;99.90
52024;DHT22;38038;45.922;13.604;2022-11-23T17:32:41;6.60;99.90
52024;DHT22;38038;45.922;13.604;2022-11-23T17:35:07;6.60;99.90
52024;DHT22;38038;45.922;13.604;2022-11-23T17:37:33;6.50;99.90
52024;DHT22;38038;45.922;13.604;2022-11-23T17:39:59;6.50;99.90
52024;DHT22;38038;45.922;13.604;2022-11-23T17:42:24;6.50;99.90
52024;DHT22;38038;45.922;13.604;2022-11-23T17:44:50;6.50;99.90
52024;DHT22;38038;45.922;13.604;2022-11-23T17:47:27;6.50;99.90
52024;DHT22;38038;45.922;13.604;2022-11-23T17:49:53;6.50;99.90
52024;DHT22;38038;45.922;13.604;2022-11-23T17:52:19;6.50;99.90
52024;DHT22;38038;45.922;13.604;2022-11-23T17:54:45;6.50;99.90
52024;DHT22;38038;45.922;13.604;2022-11-23T17:57:16;6.50;99.90
52024;DHT22;38038;45.922;13.604;2022-11-23T17:59:43;6.50;99.90
52024;DHT22;38038;45.922;13.604;2022-11-23T18:02:10;6.40;99.90
52024;DHT22;38038;45.922;13.604;2022-11-23T18:04:36;6.50;99.90
52024;DHT22;38038;45.922;13.604;2022-11-23T18:07:03;6.50;99.90
52024;DHT22;38038;45.922;13.604;2022-11-23T18:09:29;6.40;99.90
52024;DHT22;38038;45.922;13.604;2022-11-23T18:11:54;6.20;99.90
52024;DHT22;38038;45.922;13.604;2022-11-23T18:14:20;6.20;99.90
52024;DHT22;38038;45.922;13.604;2022-11-23T18:16:48;6.20;99.90
52024;DHT22;38038;45.922;13.604;2022-11-23T18:19:14;6.20;99.90
52024;DHT22;38038;45.922;13.604;2022-11-23T18:21:40;6.30;99.90
52024;DHT22;38038;45.922;13.604;2022-11-23T18:24:07;6.40;99.90
52024;DHT22;38038;45.922;13.604;2022-11-23T18:26:34;6.40;99.90
52024;DHT22;38038;45.922;13.604;2022-11-23T18:29:01;6.40;99.90
52024;DHT22;38038;45.922;13.604;2022-11-23T18:31:27;6.30;99.90
52024;DHT22;38038;45.922;13.604;2022-11-23T18:33:53;6.20;99.90
52024;DHT22;38038;45.922;13.604;2022-11-23T18:36:20;6.20;99.90
52024;DHT22;38038;45.922;13.604;2022-11-23T18:38:46;6.20;99.90
52024;DHT22;38038;45.922;13.604;2022-11-23T18:41:13;6.20;99.90
52024;DHT22;38038;45.922;13.604;2022-11-23T18:43:41;6.10;99.90
52024;DHT22;38038;45.922;13.604;2022-11-23T18:46:08;6.10;99.90
52024;DHT22;38038;45.922;13.604;2022-11-23T18:48:35;6.10;99.90
52024;DHT22;38038;45.922;13.604;2022-11-23T18:51:02;6.10;99.90
52024;DHT22;38038;45.922;13.604;2022-11-23T18:53:29;6.10;99.90
52024;DHT22;38038;45.922;13.604;2022-11-23T18:56:01;6.20;99.90
52024;DHT22;38038;45.922;13.604;2022-11-23T18:58:31;6.30;99.90
52024;DHT22;38038;45.922;13.604;2022-11-23T19:00:57;6.30;99.90
52024;DHT22;38038;45.922;13.604;2022-11-23T19:03:23;6.20;99.90
52024;DHT22;38038;45.922;13.604;2022-11-23T19:05:48;6.20;99.90
52024;DHT22;38038;45.922;13.604;2022-11-23T19:08:14;6.20;99.90
52024;DHT22;38038;45.922;13.604;2022-11-23T19:10:41;6.30;99.90
52024;DHT22;38038;45.922;13.604;2022-11-23T19:13:07;6.30;99.90
52024;DHT22;38038;45.922;13.604;2022-11-23T19:15:33;6.40;99.90
52024;DHT22;38038;45.922;13.604;2022-11-23T19:17:59;6.40;99.90
52024;DHT22;38038;45.922;13.604;2022-11-23T19:20:24;6.30;99.90
52024;DHT22;38038;45.922;13.604;2022-11-23T19:22:50;6.30;99.90
52024;DHT22;38038;45.922;13.604;2022-11-23T19:25:17;6.20;99.90
52024;DHT22;38038;45.922;13.604;2022-11-23T19:27:43;6.10;99.90
52024;DHT22;38038;45.922;13.604;2022-11-23T19:30:10;6.10;99.90
52024;DHT22;38038;45.922;13.604;2022-11-23T19:32:38;6.10;99.90
52024;DHT22;38038;45.922;13.604;2022-11-23T19:35:04;6.10;99.90
52024;DHT22;38038;45.922;13.604;2022-11-23T19:37:30;6.10;99.90
52024;DHT22;38038;45.922;13.604;2022-11-23T19:39:55;6.10;99.90
52024;DHT22;38038;45.922;13.604;2022-11-23T19:42:21;6.10;99.90
52024;DHT22;38038;45.922;13.604;2022-11-23T19:44:47;6.20;99.90
52024;DHT22;38038;45.922;13.604;2022-11-23T19:47:13;6.30;99.90
52024;DHT22;38038;45.922;13.604;2022-11-23T19:49:39;6.30;99.90
52024;DHT22;38038;45.922;13.604;2022-11-23T19:52:05;6.30;99.90
52024;DHT22;38038;45.922;13.604;2022-11-23T19:54:31;6.40;99.90
52024;DHT22;38038;45.922;13.604;2022-11-23T19:56:57;6.40;99.90
52024;DHT22;38038;45.922;13.604;2022-11-23T19:59:23;6.50;99.90
52024;DHT22;38038;45.922;13.604;2022-11-23T20:01:50;6.60;99.90
52024;DHT22;38038;45.922;13.604;2022-11-23T20:04:15;6.70;99.90
52024;DHT22;38038;45.922;13.604;2022-11-23T20:06:41;6.70;99.90
52024;DHT22;38038;45.922;13.604;2022-11-23T20:09:11;6.70;99.90
52024;DHT22;38038;45.922;13.604;2022-11-23T20:11:38;6.70;99.90
52024;DHT22;38038;45.922;13.604;2022-11-23T20:14:05;6.80;99.90
52024;DHT22;38038;45.922;13.604;2022-11-23T20:16:32;6.80;99.90
52024;DHT22;38038;45.922;13.604;2022-11-23T20:19:00;6.80;99.90
52024;DHT22;38038;45.922;13.604;2022-11-23T20:21:27;6.80;99.90
52024;DHT22;38038;45.922;13.604;2022-11-23T20:24:01;6.90;99.90
52024;DHT22;38038;45.922;13.604;2022-11-23T20:26:29;6.90;99.90
52024;DHT22;38038;45.922;13.604;2022-11-23T20:28:58;6.90;99.90
52024;DHT22;38038;45.922;13.604;2022-11-23T20:31:26;6.90;99.90
52024;DHT22;38038;45.922;13.604;2022-11-23T20:33:52;6.90;99.90
52024;DHT22;38038;45.922;13.604;2022-11-23T20:36:29;6.90;99.90
52024;DHT22;38038;45.922;13.604;2022-11-23T20:38:56;6.80;99.90
52024;DHT22;38038;45.922;13.604;2022-11-23T20:41:42;6.60;99.90
52024;DHT22;38038;45.922;13.604;2022-11-23T20:44:11;6.40;99.90
52024;DHT22;38038;45.922;13.604;2022-11-23T20:46:37;6.30;99.90
52024;DHT22;38038;45.922;13.604;2022-11-23T20:49:03;6.20;99.90
52024;DHT22;38038;45.922;13.604;2022-11-23T20:51:29;6.10;99.90
52024;DHT22;38038;45.922;13.604;2022-11-23T20:53:55;6.00;99.90
52024;DHT22;38038;45.922;13.604;2022-11-23T20:56:21;6.10;99.90
52024;DHT22;38038;45.922;13.604;2022-11-23T20:58:52;6.10;99.90
52024;DHT22;38038;45.922;13.604;2022-11-23T21:01:18;6.00;99.90
52024;DHT22;38038;45.922;13.604;2022-11-23T21:03:58;5.90;99.90
52024;DHT22;38038;45.922;13.604;2022-11-23T21:06:24;5.90;99.90
52024;DHT22;38038;45.922;13.604;2022-11-23T21:08:50;5.80;99.90
52024;DHT22;38038;45.922;13.604;2022-11-23T21:11:27;5.80;99.90
52024;DHT22;38038;45.922;13.604;2022-11-23T21:14:20;5.60;99.90
52024;DHT22;38038;45.922;13.604;2022-11-23T21:16:50;5.70;99.90
52024;DHT22;38038;45.922;13.604;2022-11-23T21:19:29;5.70;99.90
52024;DHT22;38038;45.922;13.604;2022-11-23T21:21:56;5.70;99.90
52024;DHT22;38038;45.922;13.604;2022-11-23T21:24:22;5.80;99.90
52024;DHT22;38038;45.922;13.604;2022-11-23T21:26:48;5.70;99.90
52024;DHT22;38038;45.922;13.604;2022-11-23T21:29:16;5.50;99.90
52024;DHT22;38038;45.922;13.604;2022-11-23T21:31:44;5.60;99.90
52024;DHT22;38038;45.922;13.604;2022-11-23T21:34:17;5.70;99.90
52024;DHT22;38038;45.922;13.604;2022-11-23T21:36:43;5.80;99.90
52024;DHT22;38038;45.922;13.604;2022-11-23T21:39:10;5.70;99.90
52024;DHT22;38038;45.922;13.604;2022-11-23T21:41:36;5.70;99.90
52024;DHT22;38038;45.922;13.604;2022-11-23T21:44:04;5.80;99.90
52024;DHT22;38038;45.922;13.604;2022-11-23T21:46:30;5.80;99.90
52024;DHT22;38038;45.922;13.604;2022-11-23T21:48:57;5.80;99.90
52024;DHT22;38038;45.922;13.604;2022-11-23T21:51:26;5.90;99.90
52024;DHT22;38038;45.922;13.604;2022-11-23T21:53:53;5.90;99.90
52024;DHT22;38038;45.922;13.604;2022-11-23T21:56:20;6.10;99.90
52024;DHT22;38038;45.922;13.604;2022-11-23T21:58:46;6.10;99.90
52024;DHT22;38038;45.922;13.604;2022-11-23T22:01:16;6.20;99.90
52024;DHT22;38038;45.922;13.604;2022-11-23T22:03:47;6.20;99.90
52024;DHT22;38038;45.922;13.604;2022-11-23T22:06:13;6.30;99.90
52024;DHT22;38038;45.922;13.604;2022-11-23T22:08:58;6.30;99.90
52024;DHT22;38038;45.922;13.604;2022-11-23T22:11:31;6.20;99.90
52024;DHT22;38038;45.922;13.604;2022-11-23T22:14:03;6.20;99.90
52024;DHT22;38038;45.922;13.604;2022-11-23T22:16:39;6.20;99.90
52024;DHT22;38038;45.922;13.604;2022-11-23T22:19:06;6.10;99.90
52024;DHT22;38038;45.922;13.604;2022-11-23T22:21:36;6.00;99.90
52024;DHT22;38038;45.922;13.604;2022-11-23T22:24:03;6.00;99.90
52024;DHT22;38038;45.922;13.604;2022-11-23T22:26:29;6.10;99.90
52024;DHT22;38038;45.922;13.604;2022-11-23T22:28:55;6.20;99.90
52024;DHT22;38038;45.922;13.604;2022-11-23T22:31:22;6.10;99.90
52024;DHT22;38038;45.922;13.604;2022-11-23T22:33:50;5.90;99.90
52024;DHT22;38038;45.922;13.604;2022-11-23T22:36:19;5.80;99.90
52024;DHT22;38038;45.922;13.604;2022-11-23T22:38:45;5.90;99.90
52024;DHT22;38038;45.922;13.604;2022-11-23T22:41:13;5.80;99.90
52024;DHT22;38038;45.922;13.604;2022-11-23T22:43:39;5.60;99.90
52024;DHT22;38038;45.922;13.604;2022-11-23T22:46:11;5.50;99.90
52024;DHT22;38038;45.922;13.604;2022-11-23T22:48:41;5.50;99.90
52024;DHT22;38038;45.922;13.604;2022-11-23T22:51:09;5.40;99.90
52024;DHT22;38038;45.922;13.604;2022-11-23T23:32:45;5.00;99.90
52024;DHT22;38038;45.922;13.604;2022-11-23T23:35:11;5.10;99.90
52024;DHT22;38038;45.922;13.604;2022-11-23T23:37:37;5.20;99.90
52024;DHT22;38038;45.922;13.604;2022-11-23T23:40:04;5.30;99.90
52024;DHT22;38038;45.922;13.604;2022-11-23T23:42:30;5.40;99.90
52024;DHT22;38038;45.922;13.604;2022-11-23T23:44:56;5.50;99.90
52024;DHT22;38038;45.922;13.604;2022-11-23T23:47:21;5.60;99.90
52024;DHT22;38038;45.922;13.604;2022-11-23T23:49:47;5.60;99.90
52024;DHT22;38038;45.922;13.604;2022-11-23T23:52:13;5.60;99.90
52024;DHT22;38038;45.922;13.604;2022-11-23T23:54:38;5.70;99.90
52024;DHT22;38038;45.922;13.604;2022-11-23T23:57:04;5.60;99.90
52024;DHT22;38038;45.922;13.604;2022-11-23T23:59:30;5.50;99.90
